createdAt,value
2019-05-19T00:00:23.515Z,5.42
2019-05-19T00:02:57.530Z,5.53
2019-05-19T00:05:30.546Z,5.62
2019-05-19T00:08:04.319Z,6.22
2019-05-19T00:10:36.689Z,6.15
2019-05-19T00:13:10.413Z,5.83
2019-05-19T00:15:46.654Z,5.42
2019-05-19T00:18:20.562Z,5.10
2019-05-19T00:20:54.467Z,5.30
2019-05-19T00:23:28.195Z,4.67
2019-05-19T00:26:01.360Z,4.80
2019-05-19T00:28:35.087Z,4.78
2019-05-19T00:31:09.482Z,5.00
2019-05-19T00:33:41.981Z,3.90
2019-05-19T00:36:15.146Z,3.42
2019-05-19T00:38:48.133Z,2.33
2019-05-19T00:41:22.042Z,1.00
2019-05-19T00:43:55.764Z,1.55
2019-05-19T00:46:30.161Z,1.10
2019-05-19T00:49:04.990Z,1.30
2019-05-19T00:51:38.901Z,1.10
2019-05-19T00:54:12.805Z,1.05
2019-05-19T00:56:46.717Z,0.68
2019-05-19T00:59:20.486Z,0.90
2019-05-19T01:01:54.837Z,0.93
2019-05-19T01:04:28.127Z,0.88
2019-05-19T01:07:02.036Z,1.22
2019-05-19T01:09:35.020Z,0.70
2019-05-19T01:12:08.208Z,0.80
2019-05-19T01:14:41.116Z,0.95
2019-05-19T01:17:14.284Z,0.70
2019-05-19T01:19:55.585Z,0.78
2019-05-19T01:22:24.588Z,0.55
2019-05-19T01:24:58.157Z,0.72
2019-05-19T01:27:32.064Z,0.75
2019-05-19T01:30:06.586Z,0.57
2019-05-19T01:32:40.503Z,0.62
2019-05-19T01:35:13.479Z,0.40
2019-05-19T01:37:47.390Z,0.57
2019-05-19T01:40:20.372Z,0.82
2019-05-19T01:42:53.484Z,0.50
2019-05-19T01:45:27.266Z,0.37
2019-05-19T01:48:00.868Z,0.53
2019-05-19T01:50:34.159Z,0.47
2019-05-19T01:53:07.268Z,0.47
2019-05-19T01:55:41.183Z,0.70
2019-05-19T01:58:27.865Z,0.53
2019-05-19T02:01:00.058Z,0.40
2019-05-19T02:03:33.833Z,0.57
2019-05-19T02:06:06.024Z,0.57
2019-05-19T02:08:39.932Z,0.90
2019-05-19T02:11:12.915Z,0.40
2019-05-19T02:13:46.095Z,0.40
2019-05-19T02:16:19.069Z,0.40
2019-05-19T02:18:52.978Z,0.50
2019-05-19T02:21:25.961Z,0.70
2019-05-19T02:23:59.872Z,0.57
2019-05-19T02:26:33.595Z,0.37
2019-05-19T02:29:07.500Z,0.50
2019-05-19T02:31:40.523Z,0.37
2019-05-19T02:34:13.657Z,0.35
2019-05-19T02:36:47.565Z,0.45
2019-05-19T02:39:21.288Z,0.33
2019-05-19T02:41:55.993Z,0.40
2019-05-19T02:44:31.437Z,0.65
2019-05-19T02:47:05.958Z,0.50
2019-05-19T02:49:40.480Z,0.68
2019-05-19T02:52:15.308Z,0.37
2019-05-19T02:54:49.216Z,0.53
2019-05-19T02:57:23.822Z,0.65
2019-05-19T02:59:56.847Z,0.60
2019-05-19T03:02:31.245Z,0.60
2019-05-19T03:05:03.742Z,0.60
2019-05-19T03:07:37.652Z,0.50
2019-05-19T03:10:10.635Z,0.50
2019-05-19T03:12:45.035Z,0.50
2019-05-19T03:15:17.531Z,0.70
2019-05-19T03:17:51.924Z,0.85
2019-05-19T03:20:24.913Z,0.40
2019-05-19T03:22:58.821Z,0.90
2019-05-19T03:25:31.315Z,0.78
2019-05-19T03:28:05.712Z,0.70
2019-05-19T03:30:43.021Z,0.57
2019-05-19T03:33:29.500Z,0.57
2019-05-19T03:36:04.329Z,0.50
2019-05-19T03:38:38.052Z,0.85
2019-05-19T03:41:11.223Z,0.82
2019-05-19T03:43:45.132Z,1.20
2019-05-19T03:46:18.158Z,0.98
2019-05-19T03:48:52.035Z,0.80
2019-05-19T03:51:31.001Z,1.00
2019-05-19T03:54:00.451Z,1.55
2019-05-19T03:56:32.645Z,1.12
2019-05-19T03:59:07.038Z,1.37
2019-05-19T04:01:39.532Z,1.17
2019-05-19T04:04:13.930Z,1.55
2019-05-19T04:06:46.433Z,1.87
2019-05-19T04:09:20.824Z,1.67
2019-05-19T04:11:53.325Z,1.65
2019-05-19T04:14:28.024Z,1.60
2019-05-19T04:17:00.215Z,1.80
2019-05-19T04:19:34.123Z,1.72
2019-05-19T04:22:07.104Z,1.40
2019-05-19T04:24:44.269Z,1.75
2019-05-19T04:27:17.254Z,2.17
2019-05-19T04:29:51.568Z,1.37
2019-05-19T04:32:24.886Z,1.45
2019-05-19T04:34:58.793Z,1.40
2019-05-19T04:37:31.781Z,1.52
2019-05-19T04:40:06.582Z,1.25
2019-05-19T04:42:38.672Z,1.40
2019-05-19T04:45:12.585Z,1.30
2019-05-19T04:47:45.570Z,1.40
2019-05-19T04:50:19.473Z,1.10
2019-05-19T04:52:52.644Z,1.20
2019-05-19T04:55:25.934Z,0.88
2019-05-19T04:58:03.349Z,1.00
2019-05-19T05:00:37.251Z,0.80
2019-05-19T05:03:10.422Z,0.70
2019-05-19T05:05:44.144Z,0.90
2019-05-19T05:08:28.524Z,1.00
2019-05-19T05:10:51.835Z,0.82
2019-05-19T05:13:25.435Z,0.75
2019-05-19T05:15:58.728Z,1.22
2019-05-19T05:18:31.842Z,0.45
2019-05-19T05:21:05.622Z,0.50
2019-05-19T05:23:37.993Z,0.65
2019-05-19T05:26:11.720Z,0.47
2019-05-19T05:28:44.886Z,0.40
2019-05-19T05:31:18.615Z,0.70
2019-05-19T05:33:51.779Z,0.53
2019-05-19T05:36:27.727Z,1.82
2019-05-19T05:38:59.412Z,0.80
2019-05-19T05:41:33.194Z,1.00
2019-05-19T05:44:06.304Z,1.02
2019-05-19T05:46:41.009Z,0.50
2019-05-19T05:49:13.207Z,0.45
2019-05-19T05:51:47.594Z,0.50
2019-05-19T05:54:20.093Z,0.47
2019-05-19T05:56:54.487Z,0.23
2019-05-19T05:59:26.986Z,0.20
2019-05-19T06:02:01.382Z,0.37
2019-05-19T06:04:33.886Z,0.50
2019-05-19T06:07:07.662Z,0.28
2019-05-19T06:09:40.031Z,0.55
2019-05-19T06:12:13.943Z,0.30
2019-05-19T06:14:46.924Z,0.62
2019-05-19T06:17:20.831Z,0.82
2019-05-19T06:19:53.818Z,0.50
2019-05-19T06:22:27.725Z,0.40
2019-05-19T06:25:01.448Z,0.40
2019-05-19T06:27:35.356Z,0.37
2019-05-19T06:30:09.003Z,0.40
2019-05-19T06:32:52.571Z,0.40
2019-05-19T06:35:26.477Z,0.33
2019-05-19T06:38:00.384Z,0.28
2019-05-19T06:40:34.113Z,0.33
2019-05-19T06:43:08.022Z,0.20
2019-05-19T06:45:41.187Z,0.28
2019-05-19T06:48:14.913Z,0.20
2019-05-19T06:50:48.082Z,0.33
2019-05-19T06:53:21.804Z,0.30
2019-05-19T06:55:54.975Z,0.42
2019-05-19T06:58:29.186Z,0.53
2019-05-19T07:01:03.105Z,0.40
2019-05-19T07:03:35.588Z,0.40
2019-05-19T07:06:08.757Z,0.45
2019-05-19T07:08:42.484Z,0.62
2019-05-19T07:11:16.883Z,0.70
2019-05-19T07:13:50.173Z,0.82
2019-05-19T07:16:24.081Z,0.82
2019-05-19T07:18:58.602Z,0.80
2019-05-19T07:21:32.516Z,2.45
2019-05-19T07:24:06.416Z,0.40
2019-05-19T07:26:40.323Z,0.33
2019-05-19T07:29:13.310Z,0.30
2019-05-19T07:31:47.216Z,0.30
2019-05-19T07:34:20.203Z,0.72
2019-05-19T07:36:54.852Z,0.60
2019-05-19T07:39:27.841Z,0.50
2019-05-19T07:42:01.003Z,0.82
2019-05-19T07:44:35.524Z,0.50
2019-05-19T07:47:08.675Z,0.40
2019-05-19T07:49:42.426Z,0.80
2019-05-19T07:52:15.528Z,0.30
2019-05-19T07:54:50.847Z,0.30
2019-05-19T07:57:23.833Z,0.33
2019-05-19T07:59:57.740Z,0.30
2019-05-19T08:02:32.570Z,0.50
2019-05-19T08:05:06.476Z,0.60
2019-05-19T08:07:39.475Z,1.02
2019-05-19T08:10:13.370Z,0.80
2019-05-19T08:12:47.100Z,0.98
2019-05-19T08:15:21.491Z,0.70
2019-05-19T08:17:53.989Z,0.78
2019-05-19T08:20:27.155Z,0.70
2019-05-19T08:23:00.889Z,1.30
2019-05-19T08:25:35.283Z,0.65
2019-05-19T08:28:09.220Z,0.42
2019-05-19T08:30:42.478Z,0.40
2019-05-19T08:33:15.465Z,0.50
2019-05-19T08:35:49.989Z,0.50
2019-05-19T08:38:22.485Z,0.75
2019-05-19T08:40:56.272Z,0.72
2019-05-19T08:43:29.249Z,0.80
2019-05-19T08:46:03.158Z,1.37
2019-05-19T08:48:36.151Z,1.32
2019-05-19T08:51:09.253Z,1.27
2019-05-19T08:53:42.242Z,1.52
2019-05-19T08:56:16.148Z,1.12
2019-05-19T08:58:50.543Z,1.20
2019-05-19T09:01:23.836Z,0.60
2019-05-19T09:03:58.176Z,0.53
2019-05-19T09:06:32.265Z,0.55
2019-05-19T09:09:06.173Z,0.60
2019-05-19T09:11:40.825Z,0.50
2019-05-19T09:14:13.987Z,0.40
2019-05-19T09:16:48.516Z,1.17
2019-05-19T09:19:21.620Z,0.70
2019-05-19T09:21:55.402Z,1.72
2019-05-19T09:24:30.863Z,1.30
2019-05-19T09:27:02.300Z,1.00
2019-05-19T09:29:36.203Z,1.00
2019-05-19T09:32:09.188Z,0.68
2019-05-19T09:34:41.559Z,0.70
2019-05-19T09:37:15.290Z,0.80
2019-05-19T09:39:48.453Z,0.93
2019-05-19T09:42:22.180Z,0.80
2019-05-19T09:44:55.349Z,0.62
2019-05-19T09:47:29.254Z,0.70
2019-05-19T09:50:02.239Z,0.65
2019-05-19T09:52:36.160Z,0.98
2019-05-19T09:55:10.668Z,0.80
2019-05-19T09:57:44.575Z,1.15
2019-05-19T10:00:17.562Z,1.00
2019-05-19T10:02:51.474Z,0.75
2019-05-19T10:05:23.660Z,0.62
2019-05-19T10:07:58.056Z,0.90
2019-05-19T10:10:47.322Z,1.10
2019-05-19T10:13:21.229Z,0.95
2019-05-19T10:15:53.420Z,1.10
2019-05-19T10:18:27.819Z,1.00
2019-05-19T10:21:00.311Z,1.27
2019-05-19T10:23:34.708Z,0.40
2019-05-19T10:26:08.001Z,0.60
2019-05-19T10:28:41.909Z,0.60
2019-05-19T10:31:14.894Z,0.40
2019-05-19T10:33:48.841Z,0.70
2019-05-19T10:36:21.788Z,0.37
2019-05-19T10:38:55.696Z,0.80
2019-05-19T10:41:28.771Z,0.78
2019-05-19T10:44:01.792Z,0.50
2019-05-19T10:46:34.778Z,0.65
2019-05-19T10:49:07.946Z,0.60
2019-05-19T10:51:41.672Z,0.65
2019-05-19T10:54:14.840Z,1.10
2019-05-19T10:56:48.746Z,0.75
2019-05-19T10:59:23.881Z,0.95
2019-05-19T11:01:56.870Z,0.88
2019-05-19T11:04:30.160Z,1.02
2019-05-19T11:07:03.761Z,1.10
2019-05-19T11:09:37.055Z,0.90
2019-05-19T11:12:10.654Z,1.00
2019-05-19T11:14:43.957Z,1.10
2019-05-19T11:17:17.606Z,1.00
2019-05-19T11:19:50.840Z,0.85
2019-05-19T11:22:24.440Z,1.12
2019-05-19T11:24:57.733Z,1.42
2019-05-19T11:27:30.844Z,1.05
2019-05-19T11:30:04.625Z,1.32
2019-05-19T11:32:38.541Z,1.20
2019-05-19T11:35:12.133Z,1.47
2019-05-19T11:37:45.120Z,1.95
2019-05-19T11:40:19.026Z,1.40
2019-05-19T11:42:51.526Z,2.08
2019-05-19T11:45:24.691Z,2.05
2019-05-19T11:47:57.677Z,1.32
2019-05-19T11:50:31.583Z,1.50
2019-05-19T11:53:04.570Z,1.42
2019-05-19T11:55:38.476Z,1.35
2019-05-19T11:58:16.995Z,1.45
2019-05-19T12:00:50.104Z,1.50
2019-05-19T12:03:23.088Z,1.70
2019-05-19T12:05:56.996Z,1.67
2019-05-19T12:08:29.246Z,1.00
2019-05-19T12:11:03.155Z,1.32
2019-05-19T12:13:36.875Z,2.47
2019-05-19T12:16:10.784Z,1.80
2019-05-19T12:18:44.258Z,2.02
2019-05-19T12:21:18.472Z,1.50
2019-05-19T12:23:51.457Z,1.50
2019-05-19T12:26:25.365Z,1.07
2019-05-19T12:28:58.352Z,1.25
2019-05-19T12:31:32.261Z,1.40
2019-05-19T12:34:06.165Z,1.12
2019-05-19T12:36:39.151Z,1.55
2019-05-19T12:39:12.264Z,1.20
2019-05-19T12:41:46.046Z,1.05
2019-05-19T12:44:19.163Z,1.25
2019-05-19T12:46:52.140Z,1.37
2019-05-19T12:49:25.310Z,1.32
2019-05-19T12:51:59.037Z,1.22
2019-05-19T12:54:32.204Z,1.10
2019-05-19T12:57:05.927Z,0.80
2019-05-19T12:59:39.095Z,0.68
2019-05-19T13:02:13.617Z,1.07
2019-05-19T13:05:03.638Z,0.90
2019-05-19T13:07:20.510Z,0.95
2019-05-19T13:14:56.520Z,1.22
2019-05-19T13:17:30.429Z,0.90
2019-05-19T13:20:02.688Z,0.70
2019-05-19T13:22:36.585Z,1.40
2019-05-19T13:25:09.570Z,1.17
2019-05-19T13:27:43.782Z,1.25
2019-05-19T13:30:17.211Z,1.10
2019-05-19T13:32:51.597Z,1.07
2019-05-19T13:35:24.104Z,1.10
2019-05-19T13:37:58.489Z,0.85
2019-05-19T13:40:30.990Z,0.40
2019-05-19T13:43:05.420Z,0.55
2019-05-19T13:45:37.887Z,0.60
2019-05-19T13:48:12.276Z,0.60
2019-05-19T13:50:45.569Z,0.53
2019-05-19T13:53:19.475Z,1.00
2019-05-19T13:55:51.672Z,0.95
2019-05-19T13:58:26.063Z,0.75
2019-05-19T14:00:58.571Z,0.80
2019-05-19T14:03:32.954Z,1.05
2019-05-19T14:06:06.248Z,0.88
2019-05-19T14:08:40.158Z,0.85
2019-05-19T14:11:13.273Z,0.80
2019-05-19T14:14:05.307Z,0.60
2019-05-19T14:16:39.695Z,1.17
2019-05-19T14:19:12.195Z,0.80
2019-05-19T14:21:46.588Z,1.00
2019-05-19T14:24:19.881Z,0.90
2019-05-19T14:27:00.242Z,1.00
2019-05-19T14:29:34.771Z,1.00
2019-05-19T14:32:31.710Z,1.00
2019-05-19T14:35:01.744Z,1.00
2019-05-19T14:37:35.222Z,1.10
2019-05-19T14:40:08.517Z,0.98
2019-05-19T14:42:57.169Z,0.90
2019-05-19T14:45:31.405Z,1.15
2019-05-19T14:48:04.373Z,1.10
2019-05-19T14:50:37.971Z,1.40
2019-05-19T14:53:11.263Z,1.22
2019-05-19T14:55:44.379Z,1.40
2019-05-19T14:58:17.541Z,1.10
2019-05-19T15:00:50.526Z,1.50
2019-05-19T15:03:24.434Z,1.10
2019-05-19T15:05:57.421Z,1.10
2019-05-19T15:08:31.327Z,1.32
2019-05-19T15:11:04.313Z,0.88
2019-05-19T15:13:38.222Z,1.17
2019-05-19T15:16:11.206Z,1.15
2019-05-19T15:18:46.650Z,1.20
2019-05-19T15:21:18.840Z,1.42
2019-05-19T15:23:53.235Z,2.05
2019-05-19T15:26:25.740Z,1.00
2019-05-19T15:29:00.128Z,1.22
2019-05-19T15:31:33.113Z,0.80
2019-05-19T15:34:07.332Z,0.75
2019-05-19T15:36:39.530Z,0.95
2019-05-19T15:39:14.600Z,0.75
2019-05-19T15:41:47.209Z,0.82
2019-05-19T15:44:21.117Z,1.10
2019-05-19T15:46:53.312Z,1.20
2019-05-19T15:49:27.701Z,0.88
2019-05-19T15:52:04.198Z,1.10
2019-05-19T15:54:34.909Z,1.00
2019-05-19T15:57:07.901Z,1.17
2019-05-19T15:59:39.170Z,1.25
2019-05-19T16:02:11.127Z,1.22
2019-05-19T16:04:41.226Z,0.95
2019-05-19T16:07:11.284Z,0.93
2019-05-19T16:09:41.384Z,1.02
2019-05-19T16:12:12.434Z,1.22
2019-05-19T16:14:42.513Z,0.90
2019-05-19T16:17:12.557Z,1.70
2019-05-19T16:19:42.546Z,1.45
2019-05-19T16:22:12.576Z,1.50
2019-05-19T16:24:42.655Z,1.52
2019-05-19T16:27:13.025Z,1.30
2019-05-19T16:29:43.164Z,1.40
2019-05-19T16:32:13.280Z,1.65
2019-05-19T16:34:44.335Z,1.32
2019-05-19T16:37:14.431Z,1.50
2019-05-19T16:39:44.607Z,2.27
2019-05-19T16:42:14.796Z,1.45
2019-05-19T16:44:44.912Z,1.47
2019-05-19T16:47:15.092Z,2.20
2019-05-19T16:49:45.196Z,1.90
2019-05-19T16:52:15.335Z,2.50
2019-05-19T16:54:49.843Z,2.52
2019-05-19T16:57:34.781Z,2.22
2019-05-19T17:00:00.843Z,2.45
2019-05-19T17:02:32.020Z,2.62
2019-05-19T17:05:02.038Z,3.15
2019-05-19T17:07:32.107Z,2.72
2019-05-19T17:10:02.300Z,3.00
2019-05-19T17:12:33.883Z,3.10
2019-05-19T17:15:04.771Z,3.10
2019-05-19T17:17:34.872Z,3.00
2019-05-19T17:20:09.104Z,3.10
2019-05-19T17:22:39.239Z,3.10
2019-05-19T17:25:09.742Z,3.08
2019-05-19T17:27:39.739Z,3.90
2019-05-19T17:30:11.640Z,3.87
2019-05-19T17:32:41.671Z,3.60
2019-05-19T17:35:12.111Z,3.65
2019-05-19T17:37:42.184Z,4.20
2019-05-19T17:40:13.826Z,3.58
2019-05-19T17:42:43.887Z,3.40
2019-05-19T17:45:15.567Z,3.83
2019-05-19T17:47:45.682Z,3.65
2019-05-19T17:50:17.729Z,3.58
2019-05-19T17:52:47.862Z,3.45
2019-05-19T17:55:17.936Z,3.65
2019-05-19T18:00:46.652Z,4.03
2019-05-19T18:03:16.643Z,3.50
2019-05-19T18:05:46.806Z,3.33
2019-05-19T18:08:16.775Z,3.25
2019-05-19T18:10:46.762Z,3.85
2019-05-19T18:13:16.865Z,3.83
2019-05-19T18:15:47.762Z,4.53
2019-05-19T18:18:17.813Z,3.77
2019-05-19T18:20:48.699Z,4.45
2019-05-19T18:23:19.746Z,5.50
2019-05-19T18:25:49.913Z,4.33
2019-05-19T18:28:19.967Z,4.40
2019-05-19T18:30:50.060Z,5.08
2019-05-19T18:33:21.139Z,5.40
2019-05-19T18:35:51.197Z,5.37
2019-05-19T18:38:21.155Z,5.35
2019-05-19T18:40:51.246Z,5.40
2019-05-19T18:43:21.406Z,6.15
2019-05-19T18:45:52.452Z,6.78
2019-05-19T18:48:23.439Z,6.78
2019-05-19T18:50:53.494Z,6.72
2019-05-19T18:53:23.813Z,6.53
2019-05-19T18:55:53.882Z,6.92
2019-05-19T18:58:23.890Z,7.37
2019-05-19T19:00:53.973Z,7.67
2019-05-19T19:03:24.152Z,7.28
2019-05-19T19:05:54.283Z,7.65
2019-05-19T19:08:24.368Z,7.35
2019-05-19T19:10:54.440Z,7.03
2019-05-19T19:13:24.416Z,7.75
2019-05-19T19:15:54.506Z,7.78
2019-05-19T19:18:24.646Z,7.05
2019-05-19T19:20:54.766Z,6.87
2019-05-19T19:23:24.741Z,6.92
2019-05-19T19:25:54.814Z,7.50
2019-05-19T19:28:24.915Z,7.62
2019-05-19T19:30:55.011Z,8.33
2019-05-19T19:33:24.970Z,7.87
2019-05-19T19:35:55.054Z,8.45
2019-05-19T19:38:25.273Z,7.72
2019-05-19T19:40:55.526Z,8.15
2019-05-19T19:43:25.598Z,7.72
2019-05-19T19:45:55.687Z,9.38
2019-05-19T19:48:25.825Z,9.40
2019-05-19T19:50:55.986Z,10.10
2019-05-19T19:53:26.302Z,10.65
2019-05-19T19:55:56.501Z,10.23
2019-05-19T19:58:26.618Z,9.20
2019-05-19T20:00:56.620Z,9.20
2019-05-19T20:03:26.665Z,9.28
2019-05-19T20:05:56.815Z,6.62
2019-05-19T20:08:26.850Z,6.28
2019-05-19T20:10:57.003Z,6.25
2019-05-19T20:13:27.107Z,5.97
2019-05-19T20:15:57.116Z,5.62
2019-05-19T20:18:27.262Z,5.33
2019-05-19T20:20:57.393Z,5.40
2019-05-19T20:23:27.475Z,5.90
2019-05-19T20:25:57.583Z,5.00
2019-05-19T20:28:27.738Z,3.90
2019-05-19T20:30:57.883Z,4.00
2019-05-19T20:33:27.983Z,4.05
2019-05-19T20:35:58.118Z,4.33
2019-05-19T20:38:28.162Z,3.47
2019-05-19T20:40:58.306Z,4.62
2019-05-19T20:43:28.347Z,3.70
2019-05-19T20:45:58.503Z,3.85
2019-05-19T20:48:28.587Z,4.15
2019-05-19T20:50:58.679Z,3.90
2019-05-19T20:53:29.802Z,4.87
2019-05-19T20:55:59.766Z,4.35
2019-05-19T20:58:29.893Z,4.10
2019-05-19T21:00:59.863Z,4.08
2019-05-19T21:03:29.870Z,3.92
2019-05-19T21:05:59.831Z,4.72
2019-05-19T21:08:29.901Z,3.77
2019-05-19T21:11:01.407Z,3.70
2019-05-19T21:13:31.470Z,3.58
2019-05-19T21:16:01.575Z,3.58
2019-05-19T21:18:32.543Z,3.30
2019-05-19T21:21:03.665Z,3.40
2019-05-19T21:23:33.698Z,3.33
2019-05-19T21:26:03.773Z,3.02
2019-05-19T21:28:33.902Z,2.83
2019-05-19T21:31:06.220Z,3.27
2019-05-19T21:33:36.385Z,3.47
2019-05-19T21:38:36.042Z,3.30
2019-05-19T21:41:06.134Z,3.50
2019-05-19T21:43:36.126Z,3.25
2019-05-19T21:46:06.685Z,4.10
2019-05-19T21:48:38.078Z,3.63
2019-05-19T21:53:37.329Z,3.22
2019-05-19T21:56:07.431Z,3.22
2019-05-19T21:58:37.562Z,3.30
2019-05-19T22:01:22.272Z,3.40
2019-05-19T22:03:40.634Z,3.70
2019-05-19T22:06:10.899Z,3.83
2019-05-19T22:08:42.017Z,3.92
2019-05-19T22:11:12.118Z,3.33
2019-05-19T22:13:42.096Z,3.77
2019-05-19T22:16:13.605Z,2.80
2019-05-19T22:18:43.926Z,3.45
2019-05-19T22:21:13.961Z,3.25
2019-05-19T22:23:43.958Z,2.85
2019-05-19T22:26:14.128Z,2.83
2019-05-19T22:28:44.083Z,3.15
2019-05-19T22:31:14.091Z,3.35
2019-05-19T22:33:44.206Z,2.87
2019-05-19T22:36:14.311Z,2.98
2019-05-19T22:38:44.315Z,3.42
2019-05-19T22:41:14.346Z,2.77
2019-05-19T22:43:44.214Z,3.22
2019-05-19T22:46:14.383Z,3.77
2019-05-19T22:48:44.453Z,3.40
2019-05-19T22:51:14.429Z,3.55
2019-05-19T22:53:44.524Z,3.80
2019-05-19T22:56:14.604Z,3.47
2019-05-19T22:58:44.590Z,4.15
2019-05-19T23:01:14.672Z,4.05
2019-05-19T23:03:44.773Z,4.30
2019-05-19T23:06:14.847Z,3.47
2019-05-19T23:08:44.883Z,4.30
2019-05-19T23:11:15.032Z,3.80
2019-05-19T23:13:45.062Z,4.08
2019-05-19T23:16:15.147Z,3.62
2019-05-19T23:18:46.237Z,4.20
2019-05-19T23:21:16.322Z,4.30
2019-05-19T23:23:46.444Z,3.87
2019-05-19T23:26:16.625Z,4.00
2019-05-19T23:28:46.709Z,3.72
2019-05-19T23:31:16.740Z,3.75
2019-05-19T23:33:46.817Z,4.25
2019-05-19T23:36:16.921Z,3.60
2019-05-19T23:38:46.921Z,4.17
2019-05-19T23:41:18.000Z,4.50
2019-05-19T23:43:48.088Z,4.35
2019-05-19T23:46:18.115Z,3.65
2019-05-19T23:48:48.216Z,3.92
2019-05-19T23:51:18.181Z,3.80
2019-05-19T23:53:48.254Z,4.30
2019-05-19T23:56:18.364Z,3.58
2019-05-19T23:58:48.440Z,3.55
